Time,TemperatureF,DewpointF,PressureIn,WindDirection,WindDirectionDegrees,WindSpeedMPH,WindSpeedGustMPH,Humidity,HourlyPrecipIn,Conditions,Clouds,dailyrainin,SoftwareType,DateUTC
2013-04-25 00:01:00,37.0,8.0,-100.00,ENE,78,11.0,11.0,28,-99.99,,,-99.99,,2013-04-25 06:01:00,
2013-04-25 00:11:00,37.0,7.0,-100.00,ENE,70,8.0,10.0,28,-99.99,,,-99.99,,2013-04-25 06:11:00,
2013-04-25 00:22:00,36.0,8.0,-100.00,East,80,7.0,8.0,30,-99.99,,,-99.99,,2013-04-25 06:22:00,
2013-04-25 00:31:00,33.0,7.0,-100.00,NE,36,6.0,7.0,33,-99.99,,,-99.99,,2013-04-25 06:31:00,
2013-04-25 00:41:00,33.0,7.0,-100.00,NE,36,6.0,7.0,33,-99.99,,,-99.99,,2013-04-25 06:41:00,
2013-04-25 00:52:00,36.0,6.0,-100.00,ENE,62,11.0,11.0,28,-99.99,,,-99.99,,2013-04-25 06:52:00,
2013-04-25 01:01:00,36.0,7.0,-100.00,ENE,65,10.0,12.0,28,-99.99,,,-99.99,,2013-04-25 07:01:00,
2013-04-25 01:11:00,36.0,7.0,-100.00,NE,53,9.0,11.0,29,-99.99,,,-99.99,,2013-04-25 07:11:00,
2013-04-25 01:21:00,35.0,7.0,-100.00,NE,52,10.0,11.0,29,-99.99,,,-99.99,,2013-04-25 07:21:00,
2013-04-25 01:31:00,36.0,7.0,-100.00,NE,53,11.0,12.0,29,-99.99,,,-99.99,,2013-04-25 07:31:00,
2013-04-25 01:42:00,36.0,6.0,-100.00,ENE,62,12.0,12.0,28,-99.99,,,-99.99,,2013-04-25 07:42:00,
2013-04-25 01:52:00,36.0,6.0,-100.00,ENE,66,10.0,12.0,27,-99.99,,,-99.99,,2013-04-25 07:52:00,
2013-04-25 02:01:00,36.0,6.0,-100.00,ENE,68,10.0,12.0,27,-99.99,,,-99.99,,2013-04-25 08:01:00,
2013-04-25 02:11:00,36.0,5.0,-100.00,ENE,61,10.0,11.0,26,-99.99,,,-99.99,,2013-04-25 08:11:00,
2013-04-25 02:21:00,36.0,5.0,-100.00,ENE,64,10.0,11.0,27,-99.99,,,-99.99,,2013-04-25 08:21:00,
2013-04-25 02:31:00,36.0,5.0,-100.00,NE,52,10.0,10.0,26,-99.99,,,-99.99,,2013-04-25 08:31:00,
2013-04-25 02:41:00,36.0,5.0,-100.00,ENE,62,10.0,10.0,26,-99.99,,,-99.99,,2013-04-25 08:41:00,
2013-04-25 02:51:00,35.0,6.0,-100.00,ENE,75,10.0,10.0,28,-99.99,,,-99.99,,2013-04-25 08:51:00,
2013-04-25 03:01:00,34.0,6.0,-100.00,East,79,11.0,11.0,30,-99.99,,,-99.99,,2013-04-25 09:01:00,
2013-04-25 03:11:00,34.0,6.0,-100.00,ENE,75,12.0,13.0,30,-99.99,,,-99.99,,2013-04-25 09:11:00,
2013-04-25 03:21:00,33.0,7.0,-100.00,ENE,75,12.0,12.0,32,-99.99,,,-99.99,,2013-04-25 09:21:00,
2013-04-25 03:32:00,34.0,6.0,-100.00,ENE,73,12.0,13.0,31,-99.99,,,-99.99,,2013-04-25 09:32:00,
2013-04-25 03:42:00,33.0,6.0,-100.00,ENE,63,11.0,13.0,32,-99.99,,,-99.99,,2013-04-25 09:42:00,
2013-04-25 03:52:00,33.0,5.0,-100.00,ENE,76,10.0,12.0,31,-99.99,,,-99.99,,2013-04-25 09:52:00,
2013-04-25 04:02:00,33.0,6.0,-100.00,ENE,67,13.0,15.0,30,-99.99,,,-99.99,,2013-04-25 10:02:00,
2013-04-25 04:12:00,33.0,6.0,-100.00,ENE,59,12.0,13.0,30,-99.99,,,-99.99,,2013-04-25 10:12:00,
2013-04-25 04:22:00,33.0,6.0,-100.00,NE,56,12.0,14.0,30,-99.99,,,-99.99,,2013-04-25 10:22:00,
2013-04-25 04:32:00,33.0,6.0,-100.00,ENE,66,13.0,14.0,30,-99.99,,,-99.99,,2013-04-25 10:32:00,
2013-04-25 04:42:00,34.0,6.0,-100.00,ENE,72,12.0,15.0,30,-99.99,,,-99.99,,2013-04-25 10:42:00,
2013-04-25 04:52:00,32.0,6.0,-100.00,ENE,66,11.0,14.0,32,-99.99,,,-99.99,,2013-04-25 10:52:00,
2013-04-25 05:02:00,32.0,6.0,-100.00,ENE,71,13.0,13.0,31,-99.99,,,-99.99,,2013-04-25 11:02:00,
2013-04-25 05:12:00,32.0,6.0,-100.00,ENE,68,12.0,13.0,31,-99.99,,,-99.99,,2013-04-25 11:12:00,
2013-04-25 05:22:00,33.0,6.0,-100.00,ENE,57,13.0,14.0,31,-99.99,,,-99.99,,2013-04-25 11:22:00,
2013-04-25 05:32:00,34.0,5.0,-100.00,ENE,61,13.0,14.0,28,-99.99,,,-99.99,,2013-04-25 11:32:00,
2013-04-25 05:42:00,33.0,5.0,-100.00,ENE,58,12.0,13.0,29,-99.99,,,-99.99,,2013-04-25 11:42:00,
2013-04-25 05:51:00,32.0,5.0,-100.00,ENE,59,11.0,14.0,31,-99.99,,,-99.99,,2013-04-25 11:51:00,
2013-04-25 06:01:00,33.0,5.0,-100.00,ENE,65,11.0,14.0,29,-99.99,,,-99.99,,2013-04-25 12:01:00,
2013-04-25 06:12:00,33.0,5.0,-100.00,ENE,68,11.0,12.0,30,-99.99,,,-99.99,,2013-04-25 12:12:00,
2013-04-25 06:21:00,32.0,5.0,-100.00,ENE,63,11.0,12.0,31,-99.99,,,-99.99,,2013-04-25 12:21:00,
2013-04-25 06:31:00,33.0,5.0,-100.00,ENE,57,10.0,13.0,30,-99.99,,,-99.99,,2013-04-25 12:31:00,
2013-04-25 06:41:00,33.0,5.0,-100.00,ENE,57,10.0,13.0,30,-99.99,,,-99.99,,2013-04-25 12:41:00,
2013-04-25 06:51:00,33.0,5.0,-100.00,ENE,58,10.0,13.0,30,-99.99,,,-99.99,,2013-04-25 12:51:00,
2013-04-25 07:02:00,33.0,5.0,-100.00,ENE,57,10.0,12.0,29,-99.99,,,-99.99,,2013-04-25 13:02:00,
2013-04-25 07:11:00,33.0,5.0,-100.00,NE,53,10.0,12.0,31,-99.99,,,-99.99,,2013-04-25 13:11:00,
2013-04-25 07:21:00,33.0,6.0,-100.00,ENE,68,12.0,14.0,31,-99.99,,,-99.99,,2013-04-25 13:21:00,
2013-04-25 07:31:00,32.0,6.0,-100.00,ENE,67,12.0,14.0,32,-99.99,,,-99.99,,2013-04-25 13:31:00,
2013-04-25 07:42:00,33.0,6.0,-100.00,ENE,63,10.0,14.0,31,-99.99,,,-99.99,,2013-04-25 13:42:00,
2013-04-25 07:52:00,35.0,6.0,-100.00,ENE,75,12.0,14.0,29,-99.99,,,-99.99,,2013-04-25 13:52:00,
2013-04-25 08:01:00,34.0,7.0,-100.00,SSE,150,3.0,12.0,31,-99.99,,,-99.99,,2013-04-25 14:01:00,
2013-04-25 08:11:00,35.0,7.0,-100.00,ENE,67,10.0,13.0,30,-99.99,,,-99.99,,2013-04-25 14:11:00,
2013-04-25 08:21:00,36.0,7.0,-100.00,ENE,70,10.0,12.0,29,-99.99,,,-99.99,,2013-04-25 14:21:00,
2013-04-25 08:32:00,37.0,8.0,-100.00,ENE,63,7.0,12.0,29,-99.99,,,-99.99,,2013-04-25 14:32:00,
2013-04-25 08:42:00,38.0,8.0,-100.00,ENE,72,6.0,8.0,28,-99.99,,,-99.99,,2013-04-25 14:42:00,
2013-04-25 08:51:00,38.0,11.0,-100.00,SSW,192,2.0,6.0,32,-99.99,,,-99.99,,2013-04-25 14:51:00,
2013-04-25 09:01:00,38.0,11.0,-100.00,SSW,192,2.0,6.0,32,-99.99,,,-99.99,,2013-04-25 15:01:00,
2013-04-25 09:11:00,40.0,11.0,-100.00,South,185,1.0,3.0,28,-99.99,,,-99.99,,2013-04-25 15:11:00,
2013-04-25 09:21:00,41.0,10.0,-100.00,South,189,2.0,4.0,27,-99.99,,,-99.99,,2013-04-25 15:21:00,
2013-04-25 09:33:00,42.0,11.0,-100.00,WSW,255,3.0,5.0,27,-99.99,,,-99.99,,2013-04-25 15:33:00,
2013-04-25 09:42:00,42.0,11.0,-100.00,WSW,255,3.0,5.0,27,-99.99,,,-99.99,,2013-04-25 15:42:00,
2013-04-25 09:52:00,42.0,12.0,-100.00,West,267,3.0,4.0,28,-99.99,,,-99.99,,2013-04-25 15:52:00,
2013-04-25 10:02:00,43.0,13.0,-100.00,WSW,237,4.0,7.0,27,-99.99,,,-99.99,,2013-04-25 16:02:00,
2013-04-25 10:13:00,44.0,12.0,-100.00,SW,229,3.0,7.0,26,-99.99,,,-99.99,,2013-04-25 16:13:00,
2013-04-25 10:24:00,45.0,11.0,-100.00,SSW,212,4.0,7.0,24,-99.99,,,-99.99,,2013-04-25 16:24:00,
2013-04-25 10:32:00,45.0,10.0,-100.00,South,190,5.0,6.0,23,-99.99,,,-99.99,,2013-04-25 16:32:00,
2013-04-25 10:42:00,47.0,11.0,-100.00,South,189,5.0,7.0,23,-99.99,,,-99.99,,2013-04-25 16:42:00,
2013-04-25 10:52:00,46.0,9.0,-100.00,SSW,195,8.0,9.0,21,-99.99,,,-99.99,,2013-04-25 16:52:00,
2013-04-25 11:02:00,48.0,8.0,-100.00,South,176,6.0,9.0,19,-99.99,,,-99.99,,2013-04-25 17:02:00,
2013-04-25 11:11:00,49.0,10.0,-100.00,SW,214,7.0,10.0,20,-99.99,,,-99.99,,2013-04-25 17:11:00,
2013-04-25 11:22:00,48.0,9.0,-100.00,SSW,197,11.0,14.0,20,-99.99,,,-99.99,,2013-04-25 17:22:00,
2013-04-25 11:31:00,50.0,10.0,-100.00,SSW,202,13.0,15.0,20,-99.99,,,-99.99,,2013-04-25 17:31:00,
2013-04-25 11:41:00,49.0,10.0,-100.00,SSW,197,13.0,20.0,20,-99.99,,,-99.99,,2013-04-25 17:41:00,
2013-04-25 11:53:00,49.0,9.0,-100.00,South,190,15.0,18.0,19,-99.99,,,-99.99,,2013-04-25 17:53:00,
2013-04-25 12:01:00,50.0,9.0,-100.00,SW,218,12.0,22.0,17,-99.99,,,-99.99,,2013-04-25 18:01:00,
2013-04-25 12:11:00,51.0,10.0,-100.00,SSW,195,14.0,23.0,18,-99.99,,,-99.99,,2013-04-25 18:11:00,
2013-04-25 12:21:00,50.0,7.0,-100.00,SSW,202,17.0,20.0,17,-99.99,,,-99.99,,2013-04-25 18:21:00,
2013-04-25 12:31:00,51.0,10.0,-100.00,SW,224,12.0,21.0,18,-99.99,,,-99.99,,2013-04-25 18:31:00,
2013-04-25 12:42:00,51.0,10.0,-100.00,SW,224,12.0,21.0,18,-99.99,,,-99.99,,2013-04-25 18:42:00,
2013-04-25 12:52:00,52.0,8.0,-100.00,SSW,208,14.0,19.0,16,-99.99,,,-99.99,,2013-04-25 18:52:00,
2013-04-25 13:01:00,51.0,8.0,-100.00,West,273,5.0,14.0,17,-99.99,,,-99.99,,2013-04-25 19:01:00,
2013-04-25 13:12:00,52.0,10.0,-100.00,SSW,209,4.0,17.0,18,-99.99,,,-99.99,,2013-04-25 19:12:00,
2013-04-25 13:21:00,51.0,10.0,-100.00,NW,318,8.0,13.0,18,-99.99,,,-99.99,,2013-04-25 19:21:00,
2013-04-25 13:31:00,51.0,9.0,-100.00,NNW,327,7.0,11.0,18,-99.99,,,-99.99,,2013-04-25 19:31:00,
2013-04-25 13:41:00,53.0,12.0,-100.00,South,171,8.0,14.0,18,-99.99,,,-99.99,,2013-04-25 19:41:00,
2013-04-25 13:52:00,52.0,8.0,-100.00,WSW,257,5.0,12.0,16,-99.99,,,-99.99,,2013-04-25 19:52:00,
2013-04-25 14:01:00,52.0,8.0,-100.00,West,261,3.0,11.0,16,-99.99,,,-99.99,,2013-04-25 20:01:00,
2013-04-25 14:11:00,52.0,9.0,-100.00,NNW,343,8.0,11.0,17,-99.99,,,-99.99,,2013-04-25 20:11:00,
2013-04-25 14:22:00,53.0,9.0,-100.00,SSW,212,7.0,15.0,16,-99.99,,,-99.99,,2013-04-25 20:22:00,
2013-04-25 14:32:00,53.0,10.0,-100.00,SW,222,3.0,13.0,17,-99.99,,,-99.99,,2013-04-25 20:32:00,
2013-04-25 14:42:00,53.0,9.0,-100.00,NNE,16,7.0,10.0,16,-99.99,,,-99.99,,2013-04-25 20:42:00,
2013-04-25 14:51:00,53.0,11.0,-100.00,WNW,295,15.0,17.0,18,-99.99,,,-99.99,,2013-04-25 20:51:00,
2013-04-25 15:01:00,53.0,10.0,-100.00,NW,321,6.0,14.0,17,-99.99,,,-99.99,,2013-04-25 21:01:00,
2013-04-25 15:11:00,54.0,12.0,-100.00,West,274,9.0,13.0,18,-99.99,,,-99.99,,2013-04-25 21:11:00,
2013-04-25 15:21:00,54.0,12.0,-100.00,WSW,250,7.0,16.0,18,-99.99,,,-99.99,,2013-04-25 21:21:00,
2013-04-25 15:33:00,55.0,12.0,-100.00,NW,320,10.0,16.0,17,-99.99,,,-99.99,,2013-04-25 21:33:00,
2013-04-25 15:42:00,54.0,12.0,-100.00,NW,310,14.0,21.0,18,-99.99,,,-99.99,,2013-04-25 21:42:00,
2013-04-25 15:52:00,54.0,14.0,-100.00,NNW,347,6.0,18.0,20,-99.99,,,-99.99,,2013-04-25 21:52:00,
2013-04-25 16:02:00,54.0,15.0,-100.00,WNW,303,15.0,18.0,21,-99.99,,,-99.99,,2013-04-25 22:02:00,
2013-04-25 16:12:00,54.0,12.0,-100.00,NNW,327,13.0,18.0,18,-99.99,,,-99.99,,2013-04-25 22:12:00,
2013-04-25 16:22:00,56.0,15.0,-100.00,NNW,333,12.0,16.0,19,-99.99,,,-99.99,,2013-04-25 22:22:00,
2013-04-25 16:32:00,54.0,16.0,-100.00,NW,322,10.0,22.0,21,-99.99,,,-99.99,,2013-04-25 22:32:00,
2013-04-25 16:42:00,54.0,14.0,-100.00,North,5,18.0,22.0,19,-99.99,,,-99.99,,2013-04-25 22:42:00,
2013-04-25 16:52:00,54.0,14.0,-100.00,North,5,18.0,22.0,19,-99.99,,,-99.99,,2013-04-25 22:52:00,
2013-04-25 17:02:00,53.0,13.0,-100.00,NNW,332,17.0,22.0,19,-99.99,,,-99.99,,2013-04-25 23:02:00,
2013-04-25 17:12:00,52.0,14.0,-100.00,North,350,16.0,23.0,20,-99.99,,,-99.99,,2013-04-25 23:12:00,
2013-04-25 17:22:00,52.0,13.0,-100.00,NNW,330,16.0,23.0,20,-99.99,,,-99.99,,2013-04-25 23:22:00,
2013-04-25 17:32:00,52.0,13.0,-100.00,NNW,346,17.0,23.0,20,-99.99,,,-99.99,,2013-04-25 23:32:00,
2013-04-25 17:41:00,52.0,11.0,-100.00,NNW,328,20.0,23.0,18,-99.99,,,-99.99,,2013-04-25 23:41:00,
2013-04-25 17:52:00,52.0,12.0,-100.00,NNW,335,15.0,22.0,19,-99.99,,,-99.99,,2013-04-25 23:52:00,
2013-04-25 18:01:00,52.0,14.0,-100.00,NNW,343,11.0,24.0,21,-99.99,,,-99.99,,2013-04-26 00:01:00,
2013-04-25 18:11:00,52.0,12.0,-100.00,NW,321,18.0,22.0,20,-99.99,,,-99.99,,2013-04-26 00:11:00,
2013-04-25 18:21:00,53.0,12.0,-100.00,NNW,342,13.0,21.0,19,-99.99,,,-99.99,,2013-04-26 00:21:00,
2013-04-25 18:31:00,53.0,13.0,-100.00,NW,326,10.0,22.0,19,-99.99,,,-99.99,,2013-04-26 00:31:00,
2013-04-25 18:41:00,52.0,13.0,-100.00,NNW,331,12.0,20.0,20,-99.99,,,-99.99,,2013-04-26 00:41:00,
2013-04-25 18:51:00,52.0,14.0,-100.00,NNW,338,11.0,19.0,21,-99.99,,,-99.99,,2013-04-26 00:51:00,
2013-04-25 19:01:00,52.0,8.0,-100.00,North,353,14.0,19.0,16,-99.99,,,-99.99,,2013-04-26 01:01:00,
2013-04-25 19:11:00,51.0,10.0,-100.00,NNW,334,15.0,22.0,18,-99.99,,,-99.99,,2013-04-26 01:11:00,
2013-04-25 19:21:00,51.0,5.0,-100.00,NNW,348,15.0,19.0,15,-99.99,,,-99.99,,2013-04-26 01:21:00,
2013-04-25 19:31:00,51.0,2.0,-100.00,NNW,348,13.0,23.0,13,-99.99,,,-99.99,,2013-04-26 01:31:00,
2013-04-25 19:41:00,50.0,2.0,-100.00,NNW,334,14.0,21.0,13,-99.99,,,-99.99,,2013-04-26 01:41:00,
2013-04-25 19:52:00,50.0,2.0,-100.00,NNW,335,15.0,21.0,13,-99.99,,,-99.99,,2013-04-26 01:52:00,
2013-04-25 20:01:00,49.0,2.0,-100.00,NNW,328,15.0,21.0,13,-99.99,,,-99.99,,2013-04-26 02:01:00,
2013-04-25 20:11:00,49.0,0.0,-100.00,North,349,14.0,20.0,12,-99.99,,,-99.99,,2013-04-26 02:11:00,
2013-04-25 20:31:00,47.0,-1.0,-100.00,NNW,344,12.0,19.0,12,-99.99,,,-99.99,,2013-04-26 02:31:00,
2013-04-25 20:51:00,46.0,-4.0,-100.00,NNW,344,11.0,18.0,11,-99.99,,,-99.99,,2013-04-26 02:51:00,
2013-04-25 21:01:00,45.0,-6.0,-100.00,North,358,11.0,15.0,11,-99.99,,,-99.99,,2013-04-26 03:01:00,
2013-04-25 21:11:00,45.0,-9.0,-100.00,North,0,11.0,17.0,9,-99.99,,,-99.99,,2013-04-26 03:11:00,
2013-04-25 21:21:00,44.0,-11.0,-100.00,North,1,8.0,14.0,9,-99.99,,,-99.99,,2013-04-26 03:21:00,
2013-04-25 21:32:00,44.0,-12.0,-100.00,North,350,9.0,15.0,8,-99.99,,,-99.99,,2013-04-26 03:32:00,
2013-04-25 21:43:00,44.0,-11.0,-100.00,NNW,345,9.0,13.0,8,-99.99,,,-99.99,,2013-04-26 03:43:00,
2013-04-25 21:52:00,43.0,-12.0,-100.00,North,349,10.0,11.0,8,-99.99,,,-99.99,,2013-04-26 03:52:00,
2013-04-25 22:02:00,43.0,-13.0,-100.00,NNW,348,8.0,12.0,8,-99.99,,,-99.99,,2013-04-26 04:02:00,
2013-04-25 22:12:00,42.0,-12.0,-100.00,North,359,9.0,9.0,9,-99.99,,,-99.99,,2013-04-26 04:12:00,
2013-04-25 22:22:00,42.0,-13.0,-100.00,North,3,7.0,11.0,9,-99.99,,,-99.99,,2013-04-26 04:22:00,
2013-04-25 22:32:00,41.0,-14.0,-100.00,NNE,16,8.0,9.0,8,-99.99,,,-99.99,,2013-04-26 04:32:00,
2013-04-25 22:43:00,39.0,-13.0,-100.00,NNE,18,7.0,8.0,10,-99.99,,,-99.99,,2013-04-26 04:43:00,
2013-04-25 22:52:00,38.0,-12.0,-100.00,NNE,27,5.0,8.0,11,-99.99,,,-99.99,,2013-04-26 04:52:00,
2013-04-25 23:02:00,35.0,-11.0,-100.00,NNE,14,7.0,7.0,12,-99.99,,,-99.99,,2013-04-26 05:02:00,
2013-04-25 23:12:00,36.0,-11.0,-100.00,NNE,17,8.0,8.0,12,-99.99,,,-99.99,,2013-04-26 05:12:00,
2013-04-25 23:22:00,39.0,-12.0,-100.00,NNE,28,6.0,9.0,10,-99.99,,,-99.99,,2013-04-26 05:22:00,
2013-04-25 23:32:00,41.0,-10.0,-100.00,NE,38,9.0,11.0,10,-99.99,,,-99.99,,2013-04-26 05:32:00,
2013-04-25 23:41:00,42.0,-11.0,-100.00,NE,52,10.0,11.0,10,-99.99,,,-99.99,,2013-04-26 05:41:00,
2013-04-25 23:52:00,35.0,-8.0,-100.00,NNE,17,2.0,9.0,15,-99.99,,,-99.99,,2013-04-26 05:52:00,